createdAt,value
2023-05-29T00:02:18.863Z,5.97
2023-05-29T00:04:46.045Z,5.32
2023-05-29T00:07:13.062Z,5.15
2023-05-29T00:09:40.024Z,5.47
2023-05-29T00:12:07.297Z,6.65
2023-05-29T00:14:34.211Z,5.90
2023-05-29T00:17:01.151Z,6.40
2023-05-29T00:19:29.456Z,5.90
2023-05-29T00:21:58.453Z,5.93
2023-05-29T00:24:25.588Z,5.45
2023-05-29T00:26:52.491Z,5.00
2023-05-29T00:29:19.500Z,7.05
2023-05-29T00:31:46.503Z,6.07
2023-05-29T00:34:13.408Z,5.07
2023-05-29T00:36:41.000Z,5.40
2023-05-29T00:39:07.972Z,5.32
2023-05-29T00:41:35.043Z,5.53
2023-05-29T00:44:02.182Z,5.63
2023-05-29T00:46:30.264Z,4.93
2023-05-29T00:48:57.186Z,6.05
2023-05-29T00:51:24.577Z,5.43
2023-05-29T00:53:52.417Z,4.85
2023-05-29T00:56:21.699Z,6.15
2023-05-29T00:58:53.066Z,5.63
2023-05-29T01:01:20.701Z,5.20
2023-05-29T01:03:49.740Z,4.90
2023-05-29T01:06:17.092Z,5.60
2023-05-29T01:08:45.217Z,5.15
2023-05-29T01:11:31.923Z,5.50
2023-05-29T01:14:05.625Z,5.93
2023-05-29T01:16:39.758Z,5.43
2023-05-29T01:19:28.212Z,6.28
2023-05-29T01:22:18.321Z,5.75
2023-05-29T01:24:54.012Z,5.28
2023-05-29T01:27:26.388Z,4.60
2023-05-29T01:29:55.705Z,4.63
2023-05-29T01:32:24.234Z,5.90
2023-05-29T01:34:51.192Z,5.00
2023-05-29T01:37:18.060Z,5.88
2023-05-29T01:39:45.016Z,5.45
2023-05-29T01:42:13.096Z,4.20
2023-05-29T01:44:40.614Z,4.18
2023-05-29T01:47:07.747Z,3.50
2023-05-29T01:49:37.775Z,4.50
2023-05-29T01:52:05.139Z,4.57
2023-05-29T01:54:32.104Z,4.60
2023-05-29T01:57:00.693Z,4.60
2023-05-29T01:59:28.312Z,4.85
2023-05-29T02:01:55.352Z,3.67
2023-05-29T02:04:22.373Z,4.40
2023-05-29T02:06:49.533Z,4.18
2023-05-29T02:09:18.132Z,4.05
2023-05-29T02:11:46.849Z,3.97
2023-05-29T02:14:13.900Z,4.07
2023-05-29T02:16:42.212Z,3.70
2023-05-29T02:19:09.316Z,4.15
2023-05-29T02:21:39.617Z,3.65
2023-05-29T02:24:06.634Z,3.60
2023-05-29T02:26:37.673Z,4.78
2023-05-29T02:29:07.754Z,4.30
2023-05-29T02:31:34.879Z,4.32
2023-05-29T02:34:01.848Z,4.10
2023-05-29T02:36:28.921Z,5.53
2023-05-29T02:38:58.844Z,5.05
2023-05-29T02:41:25.869Z,4.05
2023-05-29T02:43:52.771Z,4.05
2023-05-29T02:46:23.054Z,3.63
2023-05-29T02:48:50.131Z,5.35
2023-05-29T02:51:16.964Z,4.50
2023-05-29T02:53:43.909Z,4.55
2023-05-29T02:56:10.896Z,4.07
2023-05-29T02:58:37.918Z,4.95
2023-05-29T03:01:05.927Z,5.32
2023-05-29T03:03:33.252Z,4.57
2023-05-29T03:06:01.602Z,4.53
2023-05-29T03:08:29.274Z,5.57
2023-05-29T03:10:56.538Z,3.67
2023-05-29T03:13:23.887Z,4.07
2023-05-29T03:15:58.451Z,4.47
2023-05-29T03:18:26.174Z,4.47
2023-05-29T03:20:53.326Z,4.05
2023-05-29T03:23:20.811Z,4.57
2023-05-29T03:25:47.730Z,4.88
2023-05-29T03:28:14.730Z,4.93
2023-05-29T03:30:41.863Z,4.28
2023-05-29T03:33:14.278Z,4.75
2023-05-29T03:36:01.955Z,4.40
2023-05-29T03:38:29.662Z,3.90
2023-05-29T03:40:59.169Z,4.78
2023-05-29T03:43:26.098Z,4.63
2023-05-29T03:45:52.970Z,4.47
2023-05-29T03:48:20.891Z,4.85
2023-05-29T03:50:49.106Z,4.63
2023-05-29T03:53:21.326Z,4.15
2023-05-29T03:55:48.536Z,4.03
2023-05-29T03:58:15.472Z,4.75
2023-05-29T04:00:42.483Z,5.10
2023-05-29T04:03:10.413Z,5.15
2023-05-29T04:05:37.487Z,5.47
2023-05-29T04:08:15.358Z,4.95
2023-05-29T04:10:43.187Z,4.88
2023-05-29T04:13:10.121Z,4.63
2023-05-29T04:15:37.352Z,4.55
2023-05-29T04:18:04.410Z,4.00
2023-05-29T04:20:31.899Z,3.70
2023-05-29T04:22:58.896Z,5.18
2023-05-29T04:25:26.250Z,4.78
2023-05-29T04:27:53.114Z,4.18
2023-05-29T04:30:21.045Z,4.97
2023-05-29T04:32:49.608Z,5.03
2023-05-29T04:35:17.137Z,3.97
2023-05-29T04:37:54.851Z,3.95
2023-05-29T04:40:22.928Z,4.57
2023-05-29T04:42:51.515Z,4.30
2023-05-29T04:45:22.037Z,4.88
2023-05-29T04:47:50.482Z,4.05
2023-05-29T04:50:18.558Z,4.78
2023-05-29T04:52:45.578Z,4.60
2023-05-29T04:55:12.827Z,3.58
2023-05-29T04:57:39.806Z,4.80
2023-05-29T05:00:12.737Z,4.00
2023-05-29T05:02:40.434Z,4.78
2023-05-29T05:05:07.711Z,4.07
2023-05-29T05:07:34.618Z,5.65
2023-05-29T05:10:01.984Z,4.53
2023-05-29T05:12:29.106Z,4.90
2023-05-29T05:14:56.219Z,5.07
2023-05-29T05:17:23.173Z,4.45
2023-05-29T05:19:50.550Z,4.30
2023-05-29T05:22:17.612Z,4.00
2023-05-29T05:24:44.554Z,4.60
2023-05-29T05:27:11.556Z,5.55
2023-05-29T05:29:39.661Z,4.60
2023-05-29T05:32:07.905Z,4.88
2023-05-29T05:34:35.089Z,3.70
2023-05-29T05:37:03.746Z,4.68
2023-05-29T05:39:31.053Z,4.22
2023-05-29T05:41:58.263Z,4.00
2023-05-29T05:44:43.706Z,4.65
2023-05-29T05:47:13.561Z,4.88
2023-05-29T05:49:40.495Z,5.22
2023-05-29T05:52:07.958Z,4.85
2023-05-29T05:54:35.814Z,4.15
2023-05-29T05:57:04.144Z,3.97
2023-05-29T05:59:32.690Z,3.63
2023-05-29T06:01:59.681Z,4.05
2023-05-29T06:04:27.155Z,4.07
2023-05-29T06:06:54.606Z,4.20
2023-05-29T06:09:23.131Z,3.97
2023-05-29T06:11:51.049Z,4.13
2023-05-29T06:14:17.980Z,4.13
2023-05-29T06:16:45.280Z,4.72
2023-05-29T06:19:12.172Z,4.43
2023-05-29T06:21:52.538Z,4.70
2023-05-29T06:24:19.762Z,4.05
2023-05-29T06:26:46.675Z,4.95
2023-05-29T06:29:14.765Z,4.82
2023-05-29T06:31:41.658Z,4.43
2023-05-29T06:34:08.784Z,4.65
2023-05-29T06:36:36.030Z,5.25
2023-05-29T06:39:03.101Z,4.45
2023-05-29T06:41:29.984Z,4.32
2023-05-29T06:43:57.156Z,4.95
2023-05-29T06:46:24.126Z,4.65
2023-05-29T06:48:51.359Z,5.78
2023-05-29T06:51:18.933Z,5.50
2023-05-29T06:53:45.988Z,5.55
2023-05-29T06:56:14.451Z,5.63
2023-05-29T06:58:46.913Z,5.70
2023-05-29T07:01:17.899Z,5.25
2023-05-29T07:03:56.571Z,5.63
2023-05-29T07:06:23.817Z,5.00
2023-05-29T07:08:50.677Z,5.57
2023-05-29T07:11:18.334Z,4.07
2023-05-29T07:13:45.278Z,5.25
2023-05-29T07:16:23.932Z,4.72
2023-05-29T07:18:57.275Z,6.17
2023-05-29T07:21:24.395Z,4.80
2023-05-29T07:23:51.357Z,5.75
2023-05-29T07:26:18.272Z,4.38
2023-05-29T07:28:45.165Z,5.68
2023-05-29T07:31:12.262Z,5.32
2023-05-29T07:33:42.357Z,4.97
2023-05-29T07:36:09.337Z,5.05
2023-05-29T07:38:36.241Z,3.92
2023-05-29T07:41:03.518Z,4.38
2023-05-29T07:43:36.709Z,3.88
2023-05-29T07:46:07.446Z,4.05
2023-05-29T07:48:37.072Z,3.92
2023-05-29T07:51:04.203Z,4.32
2023-05-29T07:53:36.819Z,4.45
2023-05-29T07:56:04.205Z,4.10
2023-05-29T07:58:33.040Z,5.22
2023-05-29T08:01:00.517Z,4.25
2023-05-29T08:03:28.225Z,5.18
2023-05-29T08:06:13.933Z,4.60
2023-05-29T08:08:40.867Z,4.22
2023-05-29T08:11:08.057Z,4.75
2023-05-29T08:13:35.463Z,4.45
2023-05-29T08:16:02.655Z,4.63
2023-05-29T08:18:32.391Z,4.18
2023-05-29T08:21:00.493Z,4.30
2023-05-29T08:23:27.662Z,5.10
2023-05-29T08:25:54.555Z,4.45
2023-05-29T08:28:22.746Z,4.43
2023-05-29T08:30:49.759Z,3.72
2023-05-29T08:33:16.811Z,4.47
2023-05-29T08:35:43.903Z,4.35
2023-05-29T08:38:10.980Z,3.65
2023-05-29T08:40:38.179Z,3.58
2023-05-29T08:43:18.742Z,4.30
2023-05-29T08:45:47.698Z,3.90
2023-05-29T08:48:15.786Z,4.95
2023-05-29T08:50:47.314Z,4.63
2023-05-29T08:53:16.353Z,4.05
2023-05-29T08:55:43.463Z,3.67
2023-05-29T08:58:12.430Z,3.70
2023-05-29T09:00:41.988Z,4.03
2023-05-29T09:03:09.218Z,4.55
2023-05-29T09:05:40.757Z,4.25
2023-05-29T09:08:09.948Z,4.03
2023-05-29T09:10:38.821Z,4.95
2023-05-29T09:13:06.813Z,4.30
2023-05-29T09:15:34.955Z,5.18
2023-05-29T09:18:02.107Z,4.03
2023-05-29T09:20:29.711Z,5.00
2023-05-29T09:23:02.148Z,4.38
2023-05-29T09:25:31.711Z,5.07
2023-05-29T09:28:03.959Z,5.10
2023-05-29T09:30:39.789Z,5.18
2023-05-29T09:33:11.266Z,4.60
2023-05-29T09:35:43.694Z,4.93
2023-05-29T09:38:20.487Z,5.28
2023-05-29T09:40:59.817Z,5.35
2023-05-29T09:43:26.743Z,5.38
2023-05-29T09:45:53.600Z,4.43
2023-05-29T09:48:25.155Z,5.15
2023-05-29T09:50:52.314Z,5.78
2023-05-29T09:53:25.354Z,4.72
2023-05-29T09:55:54.169Z,5.50
2023-05-29T09:58:21.918Z,4.90
2023-05-29T10:00:49.753Z,4.30
2023-05-29T10:03:18.004Z,6.25
2023-05-29T10:05:53.497Z,4.90
2023-05-29T10:08:21.396Z,5.72
2023-05-29T10:10:55.008Z,5.53
2023-05-29T10:13:25.909Z,4.85
2023-05-29T10:15:55.682Z,4.72
2023-05-29T10:18:27.489Z,5.80
2023-05-29T10:20:59.034Z,4.97
2023-05-29T10:23:27.596Z,4.70
2023-05-29T10:26:00.744Z,4.80
2023-05-29T10:28:27.949Z,4.63
2023-05-29T10:31:11.743Z,4.95
2023-05-29T10:34:01.051Z,4.55
2023-05-29T10:36:36.794Z,4.57
2023-05-29T10:39:04.122Z,4.95
2023-05-29T10:41:34.039Z,4.68
2023-05-29T10:44:02.279Z,4.57
2023-05-29T10:46:45.644Z,4.30
2023-05-29T10:49:22.752Z,4.90
2023-05-29T10:51:50.175Z,5.95
2023-05-29T10:54:20.638Z,4.78
2023-05-29T10:56:57.248Z,4.88
2023-05-29T10:59:28.514Z,5.28
2023-05-29T11:01:57.109Z,5.05
2023-05-29T11:04:28.040Z,5.15
2023-05-29T11:06:55.310Z,5.28
2023-05-29T11:09:36.214Z,4.65
2023-05-29T11:12:15.387Z,4.82
2023-05-29T11:14:54.067Z,4.50
2023-05-29T11:17:31.138Z,4.25
2023-05-29T11:19:59.108Z,5.07
2023-05-29T11:22:34.998Z,4.03
2023-05-29T11:25:02.629Z,4.53
2023-05-29T11:27:30.853Z,6.32
2023-05-29T11:29:58.884Z,5.20
2023-05-29T11:32:28.760Z,5.13
2023-05-29T11:35:00.466Z,5.05
2023-05-29T11:37:27.506Z,5.22
2023-05-29T11:39:54.417Z,5.00
2023-05-29T11:42:21.354Z,4.85
2023-05-29T11:44:48.190Z,5.15
2023-05-29T11:47:16.335Z,5.00
2023-05-29T11:49:43.210Z,6.20
2023-05-29T11:52:17.074Z,5.50
2023-05-29T11:54:50.640Z,4.05
2023-05-29T11:57:21.893Z,5.57
2023-05-29T11:59:53.808Z,4.53
2023-05-29T12:02:22.125Z,4.22
2023-05-29T12:05:05.821Z,4.32
2023-05-29T12:07:33.538Z,5.30
2023-05-29T12:10:18.081Z,4.00
2023-05-29T12:12:49.930Z,5.20
2023-05-29T12:15:18.851Z,4.78
2023-05-29T12:17:46.824Z,4.25
2023-05-29T12:20:15.588Z,5.13
2023-05-29T12:22:44.320Z,5.32
2023-05-29T12:25:12.948Z,5.00
2023-05-29T12:27:44.062Z,5.65
2023-05-29T12:30:17.598Z,4.75
2023-05-29T12:32:52.874Z,5.18
2023-05-29T12:35:20.886Z,6.25
2023-05-29T12:37:50.626Z,5.65
2023-05-29T12:40:22.357Z,5.32
2023-05-29T12:42:50.211Z,4.93
2023-05-29T12:45:19.104Z,5.40
2023-05-29T12:47:47.816Z,4.28
2023-05-29T12:50:22.769Z,4.75
2023-05-29T12:52:56.146Z,4.82
2023-05-29T12:55:23.304Z,5.75
2023-05-29T12:57:50.200Z,5.20
2023-05-29T13:00:17.747Z,6.03
2023-05-29T13:02:45.931Z,5.43
2023-05-29T13:05:13.038Z,5.25
2023-05-29T13:07:40.086Z,5.93
2023-05-29T13:10:07.426Z,6.22
2023-05-29T13:12:35.156Z,5.65
2023-05-29T13:15:02.500Z,6.57
2023-05-29T13:17:29.442Z,5.85
2023-05-29T13:19:56.548Z,7.00
2023-05-29T13:22:23.488Z,5.97
2023-05-29T13:24:50.451Z,6.30
2023-05-29T13:27:17.390Z,6.80
2023-05-29T13:29:44.869Z,7.38
2023-05-29T13:32:11.823Z,5.78
2023-05-29T13:34:38.811Z,6.90
2023-05-29T13:37:05.830Z,6.43
2023-05-29T13:39:32.759Z,7.03
2023-05-29T13:41:59.885Z,6.45
2023-05-29T13:44:26.993Z,7.03
2023-05-29T13:46:54.066Z,7.25
2023-05-29T13:49:21.386Z,7.00
2023-05-29T13:51:48.889Z,5.95
2023-05-29T13:54:18.879Z,6.40
2023-05-29T13:56:47.509Z,6.93
2023-05-29T13:59:14.639Z,6.25
2023-05-29T14:01:41.878Z,6.50
2023-05-29T14:04:09.092Z,7.90
2023-05-29T14:06:38.030Z,7.90
2023-05-29T14:09:04.936Z,6.78
2023-05-29T14:11:31.943Z,7.13
2023-05-29T14:13:58.836Z,6.38
2023-05-29T14:16:25.788Z,6.93
2023-05-29T14:18:53.088Z,6.45
2023-05-29T14:21:22.057Z,6.55
2023-05-29T14:23:48.955Z,7.25
2023-05-29T14:26:15.908Z,8.40
2023-05-29T14:28:42.883Z,7.32
2023-05-29T14:31:10.076Z,6.80
2023-05-29T14:33:37.823Z,8.02
2023-05-29T14:36:05.026Z,6.93
2023-05-29T14:38:31.919Z,7.25
2023-05-29T14:41:08.993Z,7.05
2023-05-29T14:43:38.733Z,7.03
2023-05-29T14:46:05.683Z,6.75
2023-05-29T14:48:32.588Z,7.28
2023-05-29T14:50:59.459Z,6.38
2023-05-29T14:53:26.430Z,7.53
2023-05-29T14:55:54.011Z,6.78
2023-05-29T14:58:21.105Z,7.57
2023-05-29T15:00:47.994Z,7.93
2023-05-29T15:03:15.197Z,6.20
2023-05-29T15:05:42.129Z,8.25
2023-05-29T15:08:09.497Z,8.38
2023-05-29T15:10:36.515Z,7.32
2023-05-29T15:13:05.310Z,7.38
2023-05-29T15:15:46.880Z,7.15
2023-05-29T15:18:14.596Z,6.88
2023-05-29T15:20:41.884Z,7.03
2023-05-29T15:23:08.904Z,7.57
2023-05-29T15:25:35.780Z,7.50
2023-05-29T15:28:04.174Z,7.88
2023-05-29T15:30:31.037Z,8.63
2023-05-29T15:32:58.112Z,7.68
2023-05-29T15:35:25.765Z,7.85
2023-05-29T15:37:52.874Z,7.10
2023-05-29T15:40:20.029Z,6.70
2023-05-29T15:42:46.980Z,7.78
2023-05-29T15:45:15.594Z,7.15
2023-05-29T15:47:42.610Z,7.13
2023-05-29T15:50:09.943Z,7.28
2023-05-29T15:52:50.649Z,7.80
2023-05-29T15:55:22.074Z,7.72
2023-05-29T15:57:49.001Z,7.38
2023-05-29T16:00:17.369Z,7.82
2023-05-29T16:02:45.102Z,7.22
2023-05-29T16:05:12.531Z,8.50
2023-05-29T16:07:39.832Z,8.30
2023-05-29T16:10:07.421Z,7.15
2023-05-29T16:12:34.583Z,7.43
2023-05-29T16:15:01.936Z,7.07
2023-05-29T16:17:29.288Z,6.90
2023-05-29T16:19:57.545Z,7.43
2023-05-29T16:22:40.561Z,6.57
2023-05-29T16:25:10.000Z,7.13
2023-05-29T16:27:37.838Z,6.65
2023-05-29T16:30:07.451Z,7.68
2023-05-29T16:32:34.910Z,5.97
2023-05-29T16:35:09.612Z,6.20
2023-05-29T16:37:36.710Z,7.93
2023-05-29T16:40:04.102Z,6.60
2023-05-29T16:42:31.197Z,6.55
2023-05-29T16:44:58.170Z,6.43
2023-05-29T16:47:25.165Z,7.47
2023-05-29T16:49:52.209Z,6.85
2023-05-29T16:52:21.204Z,7.05
2023-05-29T16:54:49.373Z,5.93
2023-05-29T16:57:19.660Z,7.43
2023-05-29T16:59:47.190Z,6.35
2023-05-29T17:02:14.395Z,6.20
2023-05-29T17:04:41.563Z,7.43
2023-05-29T17:07:09.010Z,6.15
2023-05-29T17:09:40.603Z,6.57
2023-05-29T17:12:08.290Z,7.60
2023-05-29T17:14:35.219Z,7.45
2023-05-29T17:17:02.343Z,6.57
2023-05-29T17:19:29.312Z,6.82
2023-05-29T17:21:56.194Z,5.90
2023-05-29T17:24:23.133Z,6.72
2023-05-29T17:26:50.322Z,6.75
2023-05-29T17:29:18.279Z,8.40
2023-05-29T17:31:45.731Z,7.50
2023-05-29T17:34:12.730Z,7.68
2023-05-29T17:36:39.841Z,6.38
2023-05-29T17:39:07.236Z,6.90
2023-05-29T17:41:34.202Z,6.68
2023-05-29T17:44:01.297Z,7.35
2023-05-29T17:46:28.217Z,7.45
2023-05-29T17:48:55.272Z,6.28
2023-05-29T17:51:25.460Z,7.03
2023-05-29T17:53:52.631Z,6.70
2023-05-29T17:56:19.679Z,7.00
2023-05-29T17:58:47.776Z,7.03
2023-05-29T18:01:15.405Z,6.25
2023-05-29T18:03:42.587Z,6.60
2023-05-29T18:06:09.663Z,7.03
2023-05-29T18:08:38.355Z,7.45
2023-05-29T18:11:05.386Z,6.95
2023-05-29T18:13:33.260Z,7.50
2023-05-29T18:16:00.396Z,6.03
2023-05-29T18:18:27.466Z,5.97
2023-05-29T18:20:54.461Z,7.07
2023-05-29T18:23:22.678Z,6.95
2023-05-29T18:25:49.621Z,6.85
2023-05-29T18:28:16.582Z,6.30
2023-05-29T18:30:43.935Z,5.95
2023-05-29T18:33:11.301Z,6.93
2023-05-29T18:35:38.209Z,7.40
2023-05-29T18:38:05.436Z,6.93
2023-05-29T18:40:32.421Z,6.82
2023-05-29T18:42:59.403Z,7.68
2023-05-29T18:45:26.487Z,6.35
2023-05-29T18:47:53.478Z,7.63
2023-05-29T18:50:20.655Z,6.97
2023-05-29T18:52:47.617Z,7.10
2023-05-29T18:55:16.009Z,6.75
2023-05-29T18:57:42.961Z,7.10
2023-05-29T19:00:10.629Z,7.25
2023-05-29T19:02:38.871Z,6.97
2023-05-29T19:05:06.349Z,7.28
2023-05-29T19:07:34.312Z,6.13
2023-05-29T19:10:01.216Z,6.90
2023-05-29T19:12:28.177Z,7.05
2023-05-29T19:14:55.146Z,7.28
2023-05-29T19:17:22.692Z,6.70
2023-05-29T19:19:49.905Z,6.13
2023-05-29T19:22:17.203Z,6.63
2023-05-29T19:24:44.205Z,6.50
2023-05-29T19:27:11.735Z,6.93
2023-05-29T19:29:41.257Z,6.38
2023-05-29T19:32:09.882Z,7.35
2023-05-29T19:34:37.747Z,7.15
2023-05-29T19:37:05.005Z,6.40
2023-05-29T19:39:32.180Z,6.72
2023-05-29T19:41:59.200Z,7.28
2023-05-29T19:44:26.468Z,6.47
2023-05-29T19:46:53.855Z,6.97
2023-05-29T19:49:21.114Z,6.78
2023-05-29T19:51:52.670Z,5.75
2023-05-29T19:54:19.867Z,7.00
2023-05-29T19:56:47.001Z,6.45
2023-05-29T19:59:14.080Z,7.60
2023-05-29T20:01:43.250Z,6.35
2023-05-29T20:04:11.054Z,5.15
2023-05-29T20:06:40.786Z,6.70
2023-05-29T20:09:10.020Z,6.45
2023-05-29T20:11:37.371Z,7.13
2023-05-29T20:14:04.742Z,5.78
2023-05-29T20:16:31.852Z,6.38
2023-05-29T20:18:58.770Z,6.85
2023-05-29T20:21:26.420Z,6.53
2023-05-29T20:23:53.423Z,5.03
2023-05-29T20:26:20.536Z,5.45
2023-05-29T20:28:47.433Z,5.35
2023-05-29T20:31:14.404Z,5.43
2023-05-29T20:33:43.463Z,6.50
2023-05-29T20:36:10.884Z,5.47
2023-05-29T20:38:39.388Z,5.75
2023-05-29T20:41:06.842Z,5.57
2023-05-29T20:43:38.593Z,6.13
2023-05-29T20:46:07.706Z,5.80
2023-05-29T20:48:35.325Z,6.07
2023-05-29T20:51:02.216Z,6.15
2023-05-29T20:53:29.104Z,7.13
2023-05-29T20:55:56.053Z,7.45
2023-05-29T20:58:22.948Z,6.82
2023-05-29T21:00:49.901Z,7.05
2023-05-29T21:03:16.924Z,6.60
2023-05-29T21:05:43.888Z,6.22
2023-05-29T21:08:13.013Z,6.25
2023-05-29T21:10:40.001Z,6.45
2023-05-29T21:13:20.865Z,5.50
2023-05-29T21:15:50.881Z,5.57
2023-05-29T21:18:18.050Z,5.80
2023-05-29T21:20:45.046Z,5.30
2023-05-29T21:23:13.607Z,5.20
2023-05-29T21:25:41.620Z,5.82
2023-05-29T21:28:08.728Z,4.55
2023-05-29T21:30:35.752Z,5.80
2023-05-29T21:33:05.016Z,4.72
2023-05-29T21:35:33.075Z,5.95
2023-05-29T21:38:00.022Z,5.72
2023-05-29T21:40:27.378Z,4.88
2023-05-29T21:42:56.710Z,5.53
2023-05-29T21:45:23.837Z,4.15
2023-05-29T21:47:51.186Z,4.68
2023-05-29T21:50:18.248Z,5.30
2023-05-29T21:52:46.262Z,5.35
2023-05-29T21:55:13.799Z,4.60
2023-05-29T21:57:41.167Z,4.57
2023-05-29T22:00:11.228Z,4.30
2023-05-29T22:02:38.682Z,4.22
2023-05-29T22:05:07.279Z,4.78
2023-05-29T22:07:34.484Z,4.57
2023-05-29T22:10:02.029Z,4.65
2023-05-29T22:12:29.653Z,5.55
2023-05-29T22:14:56.931Z,5.57
2023-05-29T22:17:24.972Z,4.82
2023-05-29T22:19:52.365Z,4.55
2023-05-29T22:22:19.497Z,4.10
2023-05-29T22:24:46.375Z,3.85
2023-05-29T22:27:13.939Z,4.22
2023-05-29T22:29:41.167Z,5.03
2023-05-29T22:32:08.528Z,4.30
2023-05-29T22:34:38.554Z,4.10
2023-05-29T22:37:06.263Z,4.18
2023-05-29T22:39:34.547Z,3.90
2023-05-29T22:42:01.553Z,3.97
2023-05-29T22:44:28.715Z,4.57
2023-05-29T22:46:55.777Z,3.60
2023-05-29T22:49:22.647Z,4.05
2023-05-29T22:51:49.637Z,3.85
2023-05-29T22:54:16.528Z,4.15
2023-05-29T22:56:43.804Z,4.47
2023-05-29T22:59:10.811Z,4.53
2023-05-29T23:01:38.326Z,3.97
2023-05-29T23:04:05.848Z,3.97
2023-05-29T23:06:34.852Z,4.72
2023-05-29T23:09:02.815Z,3.85
2023-05-29T23:11:29.802Z,3.95
2023-05-29T23:13:56.798Z,4.32
2023-05-29T23:16:23.817Z,4.20
2023-05-29T23:18:50.837Z,3.85
2023-05-29T23:21:18.542Z,3.90
2023-05-29T23:23:46.305Z,4.00
2023-05-29T23:26:13.426Z,3.70
2023-05-29T23:28:40.745Z,5.00
2023-05-29T23:31:08.188Z,4.05
2023-05-29T23:33:35.107Z,4.03
2023-05-29T23:36:04.134Z,4.35
2023-05-29T23:38:32.082Z,4.65
2023-05-29T23:40:59.239Z,4.20
2023-05-29T23:43:26.798Z,3.67
2023-05-29T23:45:53.805Z,3.63
2023-05-29T23:48:20.884Z,3.70
2023-05-29T23:50:47.811Z,4.47
2023-05-29T23:53:14.679Z,4.30
2023-05-29T23:55:41.558Z,3.55
2023-05-29T23:58:08.418Z,4.90
